createdAt,value
2023-02-12T00:07:18.054Z,32.47
2023-02-12T00:22:19.463Z,29.05
2023-02-12T00:37:20.897Z,28.13
2023-02-12T00:52:22.324Z,36.72
2023-02-12T01:07:25.186Z,32.15
2023-02-12T01:22:26.591Z,30.73
2023-02-12T01:37:28.043Z,29.73
2023-02-12T01:52:29.467Z,30.00
2023-02-12T02:07:30.882Z,30.25
2023-02-12T02:22:32.364Z,28.70
2023-02-12T02:37:33.740Z,31.23
2023-02-12T02:52:35.103Z,41.88
2023-02-12T03:07:36.461Z,43.60
2023-02-12T03:22:37.805Z,43.95
2023-02-12T03:37:39.231Z,47.05
2023-02-12T03:52:40.606Z,42.17
2023-02-12T04:07:41.927Z,64.40
2023-02-12T04:22:44.874Z,77.90
2023-02-12T04:37:46.272Z,70.38
2023-02-12T04:52:47.608Z,59.83
2023-02-12T05:07:49.012Z,66.65
2023-02-12T05:22:50.407Z,51.17
2023-02-12T05:37:51.828Z,79.07
2023-02-12T05:52:53.198Z,77.45
2023-02-12T06:07:54.558Z,72.93
2023-02-12T06:22:55.906Z,70.97
2023-02-12T06:37:57.403Z,68.50
2023-02-12T06:52:58.761Z,73.28
2023-02-12T07:08:00.122Z,77.97
2023-02-12T07:23:01.488Z,67.78
2023-02-12T07:38:02.820Z,73.95
2023-02-12T07:53:04.177Z,58.75
2023-02-12T08:08:05.570Z,63.17
2023-02-12T08:23:07.021Z,65.25
2023-02-12T08:38:08.377Z,60.72
2023-02-12T08:53:09.766Z,60.33
2023-02-12T09:08:11.142Z,39.03
2023-02-12T09:23:12.508Z,51.78
2023-02-12T09:38:13.990Z,54.10
2023-02-12T09:53:15.388Z,49.63
2023-02-12T10:08:16.779Z,46.72
2023-02-12T10:23:20.550Z,25.88
2023-02-12T10:38:21.945Z,18.80
2023-02-12T10:53:23.331Z,4.13
2023-02-12T11:08:24.704Z,6.50
2023-02-12T11:23:26.055Z,9.38
2023-02-12T11:38:27.424Z,11.63
2023-02-12T11:53:33.336Z,11.88
2023-02-12T12:08:34.717Z,12.50
2023-02-12T12:23:39.751Z,10.77
2023-02-12T12:38:41.802Z,9.93
2023-02-12T12:53:43.604Z,9.60
2023-02-12T13:08:45.263Z,13.00
2023-02-12T13:23:46.651Z,9.35
2023-02-12T13:38:48.007Z,7.65
2023-02-12T13:53:49.399Z,8.77
2023-02-12T14:08:50.752Z,6.18
2023-02-12T14:23:52.977Z,6.97
2023-02-12T14:38:54.354Z,7.10
2023-02-12T14:53:55.707Z,5.20
2023-02-12T15:08:57.094Z,4.93
2023-02-12T15:23:58.518Z,7.97
2023-02-12T15:38:59.938Z,6.35
2023-02-12T15:54:01.267Z,5.03
2023-02-12T16:09:02.681Z,5.03
2023-02-12T16:24:04.766Z,6.25
2023-02-12T16:39:08.425Z,11.10
2023-02-12T16:54:09.789Z,10.73
2023-02-12T17:09:11.177Z,17.35
2023-02-12T17:24:12.522Z,17.33
2023-02-12T17:39:13.871Z,20.83
2023-02-12T17:54:17.554Z,21.40
2023-02-12T18:09:18.932Z,22.38
2023-02-12T18:24:20.272Z,16.08
2023-02-12T18:39:21.659Z,18.17
2023-02-12T18:54:23.009Z,18.33
2023-02-12T19:09:24.448Z,17.98
2023-02-12T19:24:28.693Z,21.08
2023-02-12T19:39:36.372Z,18.60
2023-02-12T19:54:37.883Z,21.42
2023-02-12T20:09:40.095Z,20.25
2023-02-12T20:24:41.539Z,20.00
2023-02-12T20:39:43.997Z,22.95
2023-02-12T20:54:47.091Z,22.83
2023-02-12T21:09:50.121Z,25.35
2023-02-12T21:24:51.478Z,23.52
2023-02-12T21:39:52.825Z,26.77
2023-02-12T21:54:56.939Z,24.10
2023-02-12T22:09:58.316Z,21.30
2023-02-12T22:24:59.694Z,25.20
2023-02-12T22:40:01.065Z,25.77
2023-02-12T22:55:02.457Z,26.90
2023-02-12T23:10:04.078Z,26.30
2023-02-12T23:25:05.447Z,24.42
2023-02-12T23:40:06.803Z,20.20
2023-02-12T23:55:08.147Z,30.42
